Star Flyer — 9HA2512 — position and weather

sailwx.info

Track history (hours):
 
Tides and Currents Weather Stations Pressure Air Temp Water Temp Dewpoint Dewpoint Depression Visibility Wind Speed Wind Dir Waves Ship Positions

Star Flyer

Last reported at 2017-May-28 08:00 UTC. Time now 2017-May-28 08:27 UTC.
Position N 37°15' E 025°21'.

Length 112 m; draft 5.9 m.

Type: Ship. MMSI: 248785000.

Date/timePositionNaut miles runAvg speedWind from/ knotsBaromVisibWave heightAir tempDewpointWater temp
2017-May-28 08:00N 37°15' E 025°21'1 1.9
2017-May-28 07:30N 37°15' E 025°19'1 1.7
2017-May-28 07:00N 37°15' E 025°18'1 2.1
2017-May-28 06:30N 37°16' E 025°17'1 2.2
2017-May-28 06:00N 37°16' E 025°16'2 3.7
2017-May-28 05:30N 37°16' E 025°13'4 7.1
2017-May-28 05:00N 37°17' E 025°09'4 8.9
2017-May-28 04:30N 37°18' E 025°04'4 8.9
2017-May-28 04:00N 37°19' E 024°58'4 9.0
2017-May-28 03:30N 37°20' E 024°53'5 9.2
2017-May-28 03:00N 37°22' E 024°47'54 9.0
2017-May-27 21:02N 37°39' E 023°43'4 9.2
2017-May-27 20:34N 37°43' E 023°41'1 9.0
2017-May-27 20:30N 37°44' E 023°40'4 9.0
2017-May-27 20:00N 37°48' E 023°38'4 8.5
2017-May-27 19:30N 37°52' E 023°37'4 8.4
2017-May-27 19:00N 37°56' E 023°37'1 1.8
2017-May-27 18:30N 37°56' E 023°38'0 0.0
2017-May-27 18:00N 37°56' E 023°38'0 0.0
2017-May-27 17:30N 37°56' E 023°38'0 0.0
2017-May-27 17:00N 37°56' E 023°38'0 0.0
2017-May-27 16:30N 37°56' E 023°38'0 0.0
2017-May-27 16:00N 37°56' E 023°38'0 0.0
2017-May-27 15:30N 37°56' E 023°38'0 0.0
2017-May-27 15:00N 37°56' E 023°38'0 0.0
2017-May-27 14:00N 37°56' E 023°38'0 0.0
2017-May-27 13:30N 37°56' E 023°38'0 0.0
2017-May-27 13:00N 37°56' E 023°38'0 0.0
2017-May-27 12:30N 37°56' E 023°38'0 0.0
2017-May-27 12:00N 37°56' E 023°38'0 0.0
2017-May-27 11:30N 37°56' E 023°38'0 0.0
2017-May-27 11:00N 37°56' E 023°38'0 0.0
2017-May-27 10:24N 37°56' E 023°38'0 0.0
2017-May-27 10:00N 37°56' E 023°38'0 0.0
2017-May-27 09:30N 37°56' E 023°38'0 0.0
2017-May-27 09:00N 37°56' E 023°38'0 0.0
2017-May-27 08:30N 37°56' E 023°38'0 0.0
2017-May-27 08:00N 37°56' E 023°38'0 0.0
2017-May-27 07:30N 37°56' E 023°38'0 0.0
2017-May-27 07:00N 37°56' E 023°38'0 0.0
2017-May-27 06:30N 37°56' E 023°38'0 0.0
2017-May-27 06:00N 37°56' E 023°38'0 0.0
2017-May-27 05:30N 37°56' E 023°38'0 0.0
2017-May-27 05:00N 37°56' E 023°38'0 0.0
2017-May-27 04:30N 37°56' E 023°38'0 0.0
2017-May-27 04:00N 37°56' E 023°38'1 1.2
2017-May-27 03:31N 37°56' E 023°37'2 3.1
2017-May-27 03:00N 37°55' E 023°36'3 6.5
2017-May-27 02:30N 37°52' E 023°38'4 8.3
2017-May-27 02:01N 37°49' E 023°41'7 8.7
2017-May-27 01:09N 37°42' E 023°44'1 8.3
2017-May-27 01:00N 37°41' E 023°45'47 6.9
2017-May-26 18:06N 37°31' E 024°44'1 8.9
2017-May-26 18:01N 37°32' E 024°45'4 8.6
2017-May-26 17:30N 37°32' E 024°50'4 8.8
2017-May-26 17:00N 37°32' E 024°56'5 7.9
2017-May-26 16:22N 37°31' E 025°02'3 8.1
2017-May-26 16:00N 37°31' E 025°06'4 8.0
2017-May-26 15:30N 37°30' E 025°11'4 7.3
2017-May-26 15:00N 37°30' E 025°15'2 4.5
2017-May-26 14:31N 37°28' E 025°17'2 1.7
2017-May-26 13:29N 37°27' E 025°19'0 0.0
2017-May-26 13:00N 37°27' E 025°19'0 0.1
2017-May-26 12:25N 37°27' E 025°19'0 0.0
2017-May-26 11:56N 37°27' E 025°19'0 0.0
2017-May-26 11:24N 37°27' E 025°19'0 0.0
2017-May-26 10:59N 37°27' E 025°19'0 0.0
2017-May-26 10:29N 37°27' E 025°19'0 0.0
2017-May-26 09:59N 37°27' E 025°19'0 0.0
2017-May-26 09:30N 37°27' E 025°19'0 0.0
2017-May-26 08:55N 37°27' E 025°19'0 0.0
2017-May-26 07:43N 37°27' E 025°19'0 0.0
2017-May-26 07:29N 37°27' E 025°19'0 0.0
2017-May-26 06:53N 37°27' E 025°19'0 0.0
2017-May-26 06:30N 37°27' E 025°19'0 0.0
2017-May-26 05:59N 37°27' E 025°19'0 0.0
2017-May-26 05:30N 37°27' E 025°19'0 0.0
2017-May-26 04:59N 37°27' E 025°19'0 0.0
2017-May-26 04:29N 37°27' E 025°19'0 0.0
2017-May-26 03:55N 37°27' E 025°19'0 0.0
2017-May-26 03:29N 37°27' E 025°19'0 0.0
2017-May-26 02:56N 37°27' E 025°19'0 0.0
2017-May-26 02:30N 37°27' E 025°19'0 0.0
2017-May-26 01:56N 37°27' E 025°19'0 0.0
2017-May-26 01:21N 37°27' E 025°19'0 0.0
2017-May-26 00:54N 37°27' E 025°19'0 0.0
2017-May-26 00:30N 37°27' E 025°19'0 0.0
2017-May-25 23:53N 37°27' E 025°19'0 0.0
2017-May-25 23:30N 37°27' E 025°19'0 0.0
2017-May-25 22:57N 37°27' E 025°19'0 0.1
2017-May-25 22:30N 37°27' E 025°19'3 6.0
2017-May-25 22:00N 37°30' E 025°17'5 8.0
2017-May-25 21:21N 37°32' E 025°24'3 9.0
2017-May-25 21:00N 37°32' E 025°28'4 8.8
2017-May-25 20:30N 37°31' E 025°33'5 9.0
2017-May-25 20:00N 37°31' E 025°39'8 9.1
2017-May-25 19:05N 37°30' E 025°49'1 9.2
2017-May-25 18:59N 37°30' E 025°50'  
2017-May-20 18:55N 37°36' E 023°46'4 9.5
2017-May-20 18:28N 37°39' E 023°43'4 9.3
2017-May-20 18:00N 37°43' E 023°41'5 9.0
2017-May-20 17:30N 37°47' E 023°38'4 8.8
2017-May-20 17:00N 37°51' E 023°36'4 8.8
2017-May-20 16:31N 37°56' E 023°36'2 3.1
2017-May-20 16:00N 37°56' E 023°38'0 0.0
2017-May-20 15:30N 37°56' E 023°38'0 0.0
2017-May-20 15:00N 37°56' E 023°38'0 0.0
2017-May-20 14:30N 37°56' E 023°38'0 0.0
2017-May-20 13:30N 37°56' E 023°38'0 0.0
2017-May-20 12:56N 37°56' E 023°38'0 0.0
2017-May-20 12:26N 37°56' E 023°38'0 0.0
2017-May-20 12:00N 37°56' E 023°38'0 0.0
2017-May-20 11:30N 37°56' E 023°38'0 0.0
2017-May-20 11:00N 37°56' E 023°38'0 0.0
2017-May-20 10:30N 37°56' E 023°38'0 0.0
2017-May-20 10:00N 37°56' E 023°38'0 0.0
2017-May-20 09:30N 37°56' E 023°38'0 0.0
2017-May-20 09:00N 37°56' E 023°38'0 0.0
2017-May-20 08:30N 37°56' E 023°38'0 0.0
2017-May-20 08:00N 37°56' E 023°38'0 0.0
2017-May-20 07:30N 37°56' E 023°38'0 0.0
2017-May-20 07:00N 37°56' E 023°38'0 0.0
2017-May-20 06:30N 37°56' E 023°38'0 0.0
2017-May-20 06:00N 37°56' E 023°38'0 0.0
2017-May-20 05:30N 37°56' E 023°38'0 0.0
2017-May-20 05:00N 37°56' E 023°38'0 0.0
2017-May-20 04:26N 37°56' E 023°38'0 0.0
2017-May-20 03:59N 37°56' E 023°38'1 2.5
2017-May-20 03:30N 37°56' E 023°37'2 4.8
2017-May-20 03:00N 37°54' E 023°37'3 6.0
2017-May-20 02:30N 37°51' E 023°39'3 6.2
2017-May-20 02:00N 37°48' E 023°41'3 6.5
2017-May-20 01:30N 37°45' E 023°43'5 8.5
2017-May-20 00:57N 37°41' E 023°45'4 9.5
2017-May-20 00:30N 37°37' E 023°46'12 4.4
2017-May-19 21:47N 37°27' E 023°37'7 6.0
2017-May-19 20:36N 37°24' E 023°29'2 9.2
2017-May-19 20:24N 37°24' E 023°27'4 0.3
2017-May-19 07:04N 37°22' E 023°22'1 6.3
2017-May-19 06:59N 37°22' E 023°23'  
Track history (hours):
 
Tides and Currents Weather Stations Pressure Air Temp Water Temp Dewpoint Dewpoint Depression Visibility Wind Speed Wind Dir Waves Ship Positions

Star Flyer

Last reported at 2017-May-28 08:00 UTC. Time now 2017-May-28 08:27 UTC.
Position N 37°15' E 025°21'.

Length 112 m; draft 5.9 m.

Type: Ship. MMSI: 248785000.

Date/timePositionNaut miles runAvg speedWind from/ knotsBaromVisibWave heightAir tempDewpointWater temp
2017-May-28 08:00N 37°15' E 025°21'1 1.9
2017-May-28 07:30N 37°15' E 025°19'1 1.7
2017-May-28 07:00N 37°15' E 025°18'1 2.1
2017-May-28 06:30N 37°16' E 025°17'1 2.2
2017-May-28 06:00N 37°16' E 025°16'2 3.7
2017-May-28 05:30N 37°16' E 025°13'4 7.1
2017-May-28 05:00N 37°17' E 025°09'4 8.9
2017-May-28 04:30N 37°18' E 025°04'4 8.9
2017-May-28 04:00N 37°19' E 024°58'4 9.0
2017-May-28 03:30N 37°20' E 024°53'5 9.2
2017-May-28 03:00N 37°22' E 024°47'54 9.0
2017-May-27 21:02N 37°39' E 023°43'4 9.2
2017-May-27 20:34N 37°43' E 023°41'1 9.0
2017-May-27 20:30N 37°44' E 023°40'4 9.0
2017-May-27 20:00N 37°48' E 023°38'4 8.5
2017-May-27 19:30N 37°52' E 023°37'4 8.4
2017-May-27 19:00N 37°56' E 023°37'1 1.8
2017-May-27 18:30N 37°56' E 023°38'0 0.0
2017-May-27 18:00N 37°56' E 023°38'0 0.0
2017-May-27 17:30N 37°56' E 023°38'0 0.0
2017-May-27 17:00N 37°56' E 023°38'0 0.0
2017-May-27 16:30N 37°56' E 023°38'0 0.0
2017-May-27 16:00N 37°56' E 023°38'0 0.0
2017-May-27 15:30N 37°56' E 023°38'0 0.0
2017-May-27 15:00N 37°56' E 023°38'0 0.0
2017-May-27 14:00N 37°56' E 023°38'0 0.0
2017-May-27 13:30N 37°56' E 023°38'0 0.0
2017-May-27 13:00N 37°56' E 023°38'0 0.0
2017-May-27 12:30N 37°56' E 023°38'0 0.0
2017-May-27 12:00N 37°56' E 023°38'0 0.0
2017-May-27 11:30N 37°56' E 023°38'0 0.0
2017-May-27 11:00N 37°56' E 023°38'0 0.0
2017-May-27 10:24N 37°56' E 023°38'0 0.0
2017-May-27 10:00N 37°56' E 023°38'0 0.0
2017-May-27 09:30N 37°56' E 023°38'0 0.0
2017-May-27 09:00N 37°56' E 023°38'0 0.0
2017-May-27 08:30N 37°56' E 023°38'0 0.0
2017-May-27 08:00N 37°56' E 023°38'0 0.0
2017-May-27 07:30N 37°56' E 023°38'0 0.0
2017-May-27 07:00N 37°56' E 023°38'0 0.0
2017-May-27 06:30N 37°56' E 023°38'0 0.0
2017-May-27 06:00N 37°56' E 023°38'0 0.0
2017-May-27 05:30N 37°56' E 023°38'0 0.0
2017-May-27 05:00N 37°56' E 023°38'0 0.0
2017-May-27 04:30N 37°56' E 023°38'0 0.0
2017-May-27 04:00N 37°56' E 023°38'1 1.2
2017-May-27 03:31N 37°56' E 023°37'2 3.1
2017-May-27 03:00N 37°55' E 023°36'3 6.5
2017-May-27 02:30N 37°52' E 023°38'4 8.3
2017-May-27 02:01N 37°49' E 023°41'7 8.7
2017-May-27 01:09N 37°42' E 023°44'1 8.3
2017-May-27 01:00N 37°41' E 023°45'47 6.9
2017-May-26 18:06N 37°31' E 024°44'1 8.9
2017-May-26 18:01N 37°32' E 024°45'4 8.6
2017-May-26 17:30N 37°32' E 024°50'4 8.8
2017-May-26 17:00N 37°32' E 024°56'5 7.9
2017-May-26 16:22N 37°31' E 025°02'3 8.1
2017-May-26 16:00N 37°31' E 025°06'4 8.0
2017-May-26 15:30N 37°30' E 025°11'4 7.3
2017-May-26 15:00N 37°30' E 025°15'2 4.5
2017-May-26 14:31N 37°28' E 025°17'2 1.7
2017-May-26 13:29N 37°27' E 025°19'0 0.0
2017-May-26 13:00N 37°27' E 025°19'0 0.1
2017-May-26 12:25N 37°27' E 025°19'0 0.0
2017-May-26 11:56N 37°27' E 025°19'0 0.0
2017-May-26 11:24N 37°27' E 025°19'0 0.0
2017-May-26 10:59N 37°27' E 025°19'0 0.0
2017-May-26 10:29N 37°27' E 025°19'0 0.0
2017-May-26 09:59N 37°27' E 025°19'0 0.0
2017-May-26 09:30N 37°27' E 025°19'0 0.0
2017-May-26 08:55N 37°27' E 025°19'0 0.0
2017-May-26 07:43N 37°27' E 025°19'0 0.0
2017-May-26 07:29N 37°27' E 025°19'0 0.0
2017-May-26 06:53N 37°27' E 025°19'0 0.0
2017-May-26 06:30N 37°27' E 025°19'0 0.0
2017-May-26 05:59N 37°27' E 025°19'0 0.0
2017-May-26 05:30N 37°27' E 025°19'0 0.0
2017-May-26 04:59N 37°27' E 025°19'0 0.0
2017-May-26 04:29N 37°27' E 025°19'0 0.0
2017-May-26 03:55N 37°27' E 025°19'0 0.0
2017-May-26 03:29N 37°27' E 025°19'0 0.0
2017-May-26 02:56N 37°27' E 025°19'0 0.0
2017-May-26 02:30N 37°27' E 025°19'0 0.0
2017-May-26 01:56N 37°27' E 025°19'0 0.0
2017-May-26 01:21N 37°27' E 025°19'0 0.0
2017-May-26 00:54N 37°27' E 025°19'0 0.0
2017-May-26 00:30N 37°27' E 025°19'0 0.0
2017-May-25 23:53N 37°27' E 025°19'0 0.0
2017-May-25 23:30N 37°27' E 025°19'0 0.0
2017-May-25 22:57N 37°27' E 025°19'0 0.1
2017-May-25 22:30N 37°27' E 025°19'3 6.0
2017-May-25 22:00N 37°30' E 025°17'5 8.0
2017-May-25 21:21N 37°32' E 025°24'3 9.0
2017-May-25 21:00N 37°32' E 025°28'4 8.8
2017-May-25 20:30N 37°31' E 025°33'5 9.0
2017-May-25 20:00N 37°31' E 025°39'8 9.1
2017-May-25 19:05N 37°30' E 025°49'1 9.2
2017-May-25 18:59N 37°30' E 025°50'  
2017-May-20 18:55N 37°36' E 023°46'4 9.5
2017-May-20 18:28N 37°39' E 023°43'4 9.3
2017-May-20 18:00N 37°43' E 023°41'5 9.0
2017-May-20 17:30N 37°47' E 023°38'4 8.8
2017-May-20 17:00N 37°51' E 023°36'4 8.8
2017-May-20 16:31N 37°56' E 023°36'2 3.1
2017-May-20 16:00N 37°56' E 023°38'0 0.0
2017-May-20 15:30N 37°56' E 023°38'0 0.0
2017-May-20 15:00N 37°56' E 023°38'0 0.0
2017-May-20 14:30N 37°56' E 023°38'0 0.0
2017-May-20 13:30N 37°56' E 023°38'0 0.0
2017-May-20 12:56N 37°56' E 023°38'0 0.0
2017-May-20 12:26N 37°56' E 023°38'0 0.0
2017-May-20 12:00N 37°56' E 023°38'0 0.0
2017-May-20 11:30N 37°56' E 023°38'0 0.0
2017-May-20 11:00N 37°56' E 023°38'0 0.0
2017-May-20 10:30N 37°56' E 023°38'0 0.0
2017-May-20 10:00N 37°56' E 023°38'0 0.0
2017-May-20 09:30N 37°56' E 023°38'0 0.0
2017-May-20 09:00N 37°56' E 023°38'0 0.0
2017-May-20 08:30N 37°56' E 023°38'0 0.0
2017-May-20 08:00N 37°56' E 023°38'0 0.0
2017-May-20 07:30N 37°56' E 023°38'0 0.0
2017-May-20 07:00N 37°56' E 023°38'0 0.0
2017-May-20 06:30N 37°56' E 023°38'0 0.0
2017-May-20 06:00N 37°56' E 023°38'0 0.0
2017-May-20 05:30N 37°56' E 023°38'0 0.0
2017-May-20 05:00N 37°56' E 023°38'0 0.0
2017-May-20 04:26N 37°56' E 023°38'0 0.0
2017-May-20 03:59N 37°56' E 023°38'1 2.5
2017-May-20 03:30N 37°56' E 023°37'2 4.8
2017-May-20 03:00N 37°54' E 023°37'3 6.0
2017-May-20 02:30N 37°51' E 023°39'3 6.2
2017-May-20 02:00N 37°48' E 023°41'3 6.5
2017-May-20 01:30N 37°45' E 023°43'5 8.5
2017-May-20 00:57N 37°41' E 023°45'4 9.5
2017-May-20 00:30N 37°37' E 023°46'12 4.4
2017-May-19 21:47N 37°27' E 023°37'7 6.0
2017-May-19 20:36N 37°24' E 023°29'2 9.2
2017-May-19 20:24N 37°24' E 023°27'4 0.3
2017-May-19 07:04N 37°22' E 023°22'1 6.3
2017-May-19 06:59N 37°22' E 023°23'  

Dump ship's entire track history